Time;durP1;ratioP1;P1;durP2;ratioP2;P2;SDS_P1;SDS_P2;PMS_P1;PMS_P2;Temp;Humidity;BMP_temperature;BMP_pressure;BME280_temperature;BME280_humidity;BME280_pressure;Samples;Min_cycle;Max_cycle;Signal;HPM_P1;HPM_P2
2022/03/02 00:01:52;;;;;;;12.75;6.05;;;;;;;-0.34;51.15;99732.88;5092654;28;20435;-60
2022/03/02 00:04:38;;;;;;;15.00;6.60;;;;;;;-0.02;50.44;99732.56;5075976;28;20404;-60
2022/03/02 00:07:23;;;;;;;12.93;6.10;;;;;;;-0.21;50.53;99733.63;5071819;28;20055;-58
2022/03/02 00:10:09;;;;;;;14.25;6.82;;;;;;;-0.29;50.88;99726.81;5072578;28;20412;-58
2022/03/02 00:12:55;;;;;;;15.70;6.80;;;;;;;-0.45;51.14;99725.22;5072397;28;20056;-59
2022/03/02 00:15:40;;;;;;;16.40;7.47;;;;;;;-0.82;52.30;99734.06;5066605;28;20051;-58
2022/03/02 00:18:26;;;;;;;18.63;7.05;;;;;;;-0.77;52.20;99728.00;5064900;28;20060;-58
2022/03/02 00:21:12;;;;;;;19.92;7.20;;;;;;;-0.68;52.30;99733.97;5072371;28;20055;-58
2022/03/02 00:23:58;;;;;;;19.60;7.18;;;;;;;-1.21;53.70;99721.41;5072258;28;20052;-58
2022/03/02 00:26:43;;;;;;;16.90;8.00;;;;;;;-1.32;54.35;99729.19;5072294;28;20050;-59
2022/03/02 00:29:29;;;;;;;13.55;6.80;;;;;;;-1.27;54.65;99727.41;5071495;28;20494;-59
2022/03/02 00:32:15;;;;;;;16.95;7.60;;;;;;;-1.54;55.58;99729.25;5060807;28;20534;-59
2022/03/02 00:35:01;;;;;;;16.23;7.97;;;;;;;-1.92;57.20;99723.34;5055339;28;20104;-59
2022/03/02 00:37:46;;;;;;;17.45;7.32;;;;;;;-1.41;55.98;99728.34;5056060;28;20076;-59
2022/03/02 00:40:33;;;;;;;16.55;8.45;;;;;;;-1.58;55.99;99730.97;5055831;28;20060;-59
2022/03/02 00:43:18;;;;;;;16.45;7.18;;;;;;;-1.89;56.80;99725.91;5055773;28;20067;-59
2022/03/02 00:46:04;;;;;;;19.23;7.00;;;;;;;-1.76;56.70;99731.88;5040689;28;20056;-59
2022/03/02 00:48:50;;;;;;;18.92;8.13;;;;;;;-1.84;56.94;99729.31;5055500;28;20060;-59
2022/03/02 00:51:36;;;;;;;27.17;9.05;;;;;;;-1.92;57.21;99724.22;5046785;28;20115;-57
2022/03/02 00:54:22;;;;;;;21.58;8.30;;;;;;;-1.88;57.13;99713.06;5040477;28;20064;-58
2022/03/02 00:57:07;;;;;;;19.70;8.07;;;;;;;-2.00;57.63;99707.94;5055699;28;20100;-58
2022/03/02 00:59:53;;;;;;;21.35;8.30;;;;;;;-2.31;58.90;99707.97;5055701;28;20154;-58
2022/03/02 01:02:39;;;;;;;17.70;7.65;;;;;;;-2.15;58.52;99699.41;5040698;28;20060;-59
2022/03/02 01:05:25;;;;;;;18.52;7.65;;;;;;;-1.89;57.74;99703.66;5055641;28;20523;-59
2022/03/02 01:08:10;;;;;;;20.52;9.05;;;;;;;-2.12;58.30;99701.97;5055480;28;20076;-59
2022/03/02 01:10:56;;;;;;;16.73;7.43;;;;;;;-2.23;58.90;99696.00;5055664;28;20068;-59
2022/03/02 01:13:41;;;;;;;13.50;7.43;;;;;;;-2.27;59.23;99695.13;5055961;28;20071;-59
2022/03/02 01:16:28;;;;;;;17.35;7.53;;;;;;;-2.27;59.37;99694.31;5055502;28;20052;-58
2022/03/02 01:19:13;;;;;;;16.27;6.97;;;;;;;-2.08;58.82;99686.56;5054239;28;20060;-59
2022/03/02 01:21:59;;;;;;;18.92;7.43;;;;;;;-2.31;59.58;99684.88;5018000;28;20055;-58
2022/03/02 01:24:45;;;;;;;14.90;7.05;;;;;;;-2.35;60.04;99677.19;5055287;28;20400;-59
2022/03/02 01:27:31;;;;;;;17.40;8.13;;;;;;;-2.39;60.17;99678.06;5055322;28;20117;-59
2022/03/02 01:30:16;;;;;;;25.58;7.70;;;;;;;-2.35;60.10;99678.91;5045538;28;20059;-57
2022/03/02 01:33:02;;;;;;;18.92;8.20;;;;;;;-2.26;59.59;99685.72;5069665;28;20452;-58
2022/03/02 01:35:48;;;;;;;18.83;7.75;;;;;;;-2.08;58.96;99679.72;5075152;28;20060;-58
2022/03/02 01:38:33;;;;;;;16.92;7.05;;;;;;;-1.64;57.71;99669.31;5073702;28;20064;-58
2022/03/02 01:41:23;;;;;;;24.45;7.72;;;;;;;-1.81;57.59;99670.22;5045714;28;20407;-59
2022/03/02 01:44:09;;;;;;;19.33;7.55;;;;;;;-1.89;58.32;99666.81;5074363;28;20052;-59
2022/03/02 01:46:55;;;;;;;15.65;7.18;;;;;;;-1.87;58.21;99667.69;5074940;28;20502;-58
2022/03/02 01:49:41;;;;;;;17.67;7.45;;;;;;;-1.59;57.25;99666.72;5074025;28;20510;-58
2022/03/02 01:52:27;;;;;;;18.90;8.35;;;;;;;-1.28;56.21;99666.56;5074366;28;20051;-59
2022/03/02 01:55:14;;;;;;;20.10;8.70;;;;;;;-1.77;57.48;99656.53;5073755;28;20396;-59
2022/03/02 01:58:00;;;;;;;15.93;8.27;;;;;;;-2.20;59.31;99659.22;5074825;28;20063;-58
2022/03/02 02:00:46;;;;;;;26.00;8.88;;;;;;;-2.23;59.40;99654.91;5074304;28;20115;-59
2022/03/02 02:03:33;;;;;;;21.77;8.57;;;;;;;-2.13;59.28;99650.63;5068491;28;20060;-59
2022/03/02 02:06:18;;;;;;;20.15;8.40;;;;;;;-1.96;58.68;99648.03;5053100;28;20076;-59
2022/03/02 02:09:06;;;;;;;20.05;7.95;;;;;;;-1.88;58.39;99643.69;5054453;28;20499;-59
2022/03/02 02:11:52;;;;;;;16.55;7.72;;;;;;;-1.95;58.45;99649.72;5053217;28;20048;-58
2022/03/02 02:14:38;;;;;;;16.90;8.45;;;;;;;-2.15;59.38;99650.63;5053954;28;20487;-58
2022/03/02 02:17:23;;;;;;;21.23;8.48;;;;;;;-1.93;59.16;99639.44;5038965;28;20075;-58
2022/03/02 02:20:10;;;;;;;17.63;9.93;;;;;;;-2.07;59.48;99657.47;5025658;28;20076;-59
2022/03/02 02:22:55;;;;;;;18.52;7.78;;;;;;;-2.29;60.34;99649.78;5054392;28;20056;-59
2022/03/02 02:25:41;;;;;;;17.77;8.13;;;;;;;-2.18;60.22;99645.50;5038827;28;20052;-57
2022/03/02 02:28:28;;;;;;;18.00;8.07;;;;;;;-2.17;60.18;99649.75;5053610;28;20059;-58
2022/03/02 02:31:14;;;;;;;20.50;9.27;;;;;;;-2.23;60.14;99645.50;5039175;28;20084;-58
2022/03/02 02:34:00;;;;;;;17.52;8.02;;;;;;;-2.37;60.76;99634.41;5053764;28;20420;-59
2022/03/02 02:36:46;;;;;;;17.65;9.18;;;;;;;-2.54;61.47;99631.84;5053706;28;20071;-58
2022/03/02 02:39:32;;;;;;;20.60;9.40;;;;;;;-2.52;61.57;99632.72;5054531;28;20056;-58
2022/03/02 02:42:17;;;;;;;21.73;8.38;;;;;;;-2.28;60.80;99633.53;5064586;28;20068;-59
2022/03/02 02:45:04;;;;;;;18.42;8.02;;;;;;;-2.26;60.84;99635.25;5073678;28;20052;-57
2022/03/02 02:47:55;;;;;;;17.60;8.68;;;;;;;-2.04;60.09;99635.19;5073550;28;20055;-57
2022/03/02 02:50:41;;;;;;;21.67;9.38;;;;;;;-2.01;59.61;99636.91;5073475;28;20056;-58
2022/03/02 02:53:27;;;;;;;20.50;9.13;;;;;;;-1.99;59.50;99627.44;5066687;28;20155;-59
2022/03/02 02:56:13;;;;;;;17.05;8.38;;;;;;;-2.22;60.23;99628.41;5072559;28;20089;-59
2022/03/02 02:58:58;;;;;;;22.88;9.18;;;;;;;-2.45;61.05;99611.31;5073315;28;20502;-59
2022/03/02 03:01:44;;;;;;;19.38;8.05;;;;;;;-2.30;60.72;99619.84;5073900;28;20076;-59
2022/03/02 03:04:30;;;;;;;20.60;8.88;;;;;;;-2.09;59.75;99618.94;5072975;28;20404;-58
2022/03/02 03:07:15;;;;;;;19.88;7.95;;;;;;;-1.83;58.97;99614.56;5073104;28;20411;-58
2022/03/02 03:10:02;;;;;;;21.63;9.30;;;;;;;-2.30;60.37;99618.13;5058150;28;20415;-58
2022/03/02 03:12:48;;;;;;;20.10;8.77;;;;;;;-2.32;60.59;99619.00;5072120;28;20051;-58
2022/03/02 03:15:34;;;;;;;18.85;8.38;;;;;;;-2.39;60.62;99613.00;5072027;28;20426;-59
2022/03/02 03:18:20;;;;;;;18.42;8.93;;;;;;;-2.62;61.24;99612.19;5057740;28;20064;-59
2022/03/02 03:21:06;;;;;;;20.02;8.60;;;;;;;-2.60;61.60;99612.19;5052702;28;20060;-58
2022/03/02 03:23:51;;;;;;;21.88;10.15;;;;;;;-2.52;61.11;99613.03;5038177;28;20079;-58
2022/03/02 03:26:37;;;;;;;20.58;9.15;;;;;;;-2.62;61.63;99606.19;5052358;28;20400;-58
2022/03/02 03:29:23;;;;;;;22.25;9.35;;;;;;;-2.73;61.84;99612.22;5052908;28;20110;-57
2022/03/02 03:32:08;;;;;;;17.48;8.82;;;;;;;-2.75;62.20;99603.66;5029991;28;20056;-57
2022/03/02 03:34:54;;;;;;;23.80;8.85;;;;;;;-2.62;61.61;99601.94;5024391;28;20048;-58
2022/03/02 03:37:41;;;;;;;22.42;9.10;;;;;;;-2.90;62.46;99603.63;5052511;28;20080;-58
2022/03/02 03:40:27;;;;;;;18.40;9.20;;;;;;;-2.41;60.79;99602.75;5045788;28;20055;-59
2022/03/02 03:43:12;;;;;;;21.88;9.48;;;;;;;-2.71;61.58;99596.81;5049227;28;20408;-58
2022/03/02 03:45:58;;;;;;;21.70;8.70;;;;;;;-2.93;62.48;99596.81;5052979;28;20052;-58
2022/03/02 03:48:44;;;;;;;21.15;8.50;;;;;;;-2.83;62.06;99600.22;5051392;28;20511;-58
2022/03/02 03:51:30;;;;;;;23.02;9.02;;;;;;;-2.90;62.13;99591.69;5052743;28;20412;-58
2022/03/02 03:54:16;;;;;;;24.42;9.05;;;;;;;-3.04;62.61;99588.25;5057940;28;20059;-58
2022/03/02 03:57:03;;;;;;;25.13;9.60;;;;;;;-3.21;63.03;99583.97;5058659;28;20071;-57
2022/03/02 03:59:48;;;;;;;20.20;9.45;;;;;;;-3.05;62.72;99581.44;5050809;28;20056;-59
2022/03/02 04:02:34;;;;;;;19.73;9.85;;;;;;;-3.00;62.30;99587.38;5057162;28;20056;-57
2022/03/02 04:05:20;;;;;;;21.23;9.15;;;;;;;-3.11;62.82;99606.22;5057880;28;20064;-60
2022/03/02 04:08:06;;;;;;;22.90;10.30;;;;;;;-2.95;61.98;99595.13;5069964;28;20052;-59
2022/03/02 04:10:52;;;;;;;19.20;8.77;;;;;;;-2.96;61.93;99591.69;5065047;28;20435;-62
2022/03/02 04:13:37;;;;;;;21.60;8.77;;;;;;;-2.80;61.65;99600.22;5078531;28;20059;-58
2022/03/02 04:16:23;;;;;;;24.10;10.40;;;;;;;-2.92;61.90;99589.97;5082173;28;20427;-58
2022/03/02 04:19:08;;;;;;;17.92;8.10;;;;;;;-2.91;61.82;99589.13;5071924;28;20146;-59
2022/03/02 04:21:54;;;;;;;22.60;9.65;;;;;;;-2.82;61.36;99575.44;5063425;28;20103;-58
2022/03/02 04:24:40;;;;;;;20.75;8.90;;;;;;;-3.08;62.32;99573.75;5058252;28;20048;-58
2022/03/02 04:27:26;;;;;;;22.23;9.23;;;;;;;-2.76;61.26;99583.97;5063912;28;20080;-59
2022/03/02 04:30:13;;;;;;;20.05;9.20;;;;;;;-2.88;61.86;99582.28;5060665;28;20071;-58
2022/03/02 04:32:59;;;;;;;20.33;9.77;;;;;;;-3.05;61.82;99581.44;5058380;28;20071;-57
2022/03/02 04:35:45;;;;;;;24.80;9.93;;;;;;;-2.90;61.60;99589.09;5060894;28;20115;-58
2022/03/02 04:38:31;;;;;;;25.73;10.27;;;;;;;-3.00;61.62;99592.53;5062230;28;20044;-59
2022/03/02 04:41:16;;;;;;;21.67;8.63;;;;;;;-3.12;62.13;99593.38;5067010;28;20071;-60
2022/03/02 04:44:02;;;;;;;22.33;9.90;;;;;;;-3.24;62.15;99589.09;5074467;28;20056;-58
2022/03/02 04:46:51;;;;;;;22.27;9.25;;;;;;;-3.30;62.51;99589.09;5083750;28;20051;-58
2022/03/02 04:49:36;;;;;;;19.73;9.77;;;;;;;-3.36;62.55;99584.78;5055315;28;20451;-58
2022/03/02 04:52:22;;;;;;;27.30;9.93;;;;;;;-3.47;62.96;99584.78;5056631;28;20056;-58
2022/03/02 04:55:09;;;;;;;22.42;9.27;;;;;;;-3.37;62.34;99590.78;5047240;28;20128;-56
2022/03/02 04:57:57;;;;;;;25.83;9.60;;;;;;;-3.26;62.04;99586.53;5058921;28;20059;-58
2022/03/02 05:00:43;;;;;;;23.30;9.45;;;;;;;-3.19;61.43;99589.09;5049186;28;20436;-58
2022/03/02 05:03:29;;;;;;;20.90;9.30;;;;;;;-3.25;61.55;99574.56;5049240;28;20052;-57
2022/03/02 05:06:14;;;;;;;18.08;9.35;;;;;;;-3.04;60.73;99580.56;5058561;28;20060;-57
2022/03/02 05:09:00;;;;;;;23.33;9.35;;;;;;;-2.87;60.81;99580.53;5058634;28;20052;-57
2022/03/02 05:11:45;;;;;;;21.42;9.07;;;;;;;-2.82;60.00;99573.72;5058331;28;20060;-57
2022/03/02 05:14:31;;;;;;;18.75;8.63;;;;;;;-3.14;61.31;99572.88;5057092;28;20052;-58
2022/03/02 05:17:17;;;;;;;21.17;9.45;;;;;;;-3.35;61.97;99579.69;5057591;28;20142;-57
2022/03/02 05:20:05;;;;;;;21.73;9.95;;;;;;;-3.31;62.19;99584.81;5059847;28;20063;-57
2022/03/02 05:22:50;;;;;;;20.83;9.43;;;;;;;-3.32;62.44;99586.53;5055287;28;20072;-57
2022/03/02 05:25:37;;;;;;;23.83;8.15;;;;;;;-3.20;62.19;99582.25;5034526;28;20069;-59
2022/03/02 05:28:22;;;;;;;19.73;8.63;;;;;;;-2.90;61.46;99589.09;5047463;28;20155;-59
2022/03/02 05:31:08;;;;;;;22.48;9.80;;;;;;;-2.75;60.44;99582.25;5040302;28;20064;-58
2022/03/02 05:33:54;;;;;;;22.77;9.02;;;;;;;-2.75;60.33;99582.25;5060962;28;20072;-58
2022/03/02 05:36:39;;;;;;;21.90;9.18;;;;;;;-2.83;60.56;99582.28;5045720;28;20412;-58
2022/03/02 05:39:25;;;;;;;18.80;8.13;;;;;;;-2.66;59.70;99579.69;5061230;28;20052;-59
2022/03/02 05:42:11;;;;;;;18.90;8.57;;;;;;;-2.64;59.50;99585.66;5040267;28;20075;-58
2022/03/02 05:44:57;;;;;;;19.02;8.52;;;;;;;-2.80;59.78;99581.41;5055047;28;20060;-57
2022/03/02 05:47:42;;;;;;;24.08;9.68;;;;;;;-3.09;60.57;99590.81;5054781;28;20060;-59
2022/03/02 05:50:28;;;;;;;23.35;8.95;;;;;;;-2.93;60.58;99588.25;5054887;28;20056;-58
2022/03/02 05:53:14;;;;;;;22.50;9.65;;;;;;;-3.28;61.27;99592.53;5054870;28;20396;-58
2022/03/02 05:55:59;;;;;;;21.73;8.48;;;;;;;-2.98;60.28;99595.94;5054941;28;20064;-58
2022/03/02 05:58:45;;;;;;;18.00;8.00;;;;;;;-2.72;59.41;99595.09;5039536;28;20427;-58
2022/03/02 06:01:31;;;;;;;20.83;8.85;;;;;;;-2.32;57.89;99598.47;5054498;28;20048;-58
2022/03/02 06:04:17;;;;;;;24.70;9.35;;;;;;;-2.28;57.22;99587.31;5052975;28;20075;-58
2022/03/02 06:07:03;;;;;;;22.55;8.23;;;;;;;-2.33;57.84;99589.06;5054499;28;20052;-58
2022/03/02 06:09:49;;;;;;;22.05;8.63;;;;;;;-1.55;61.85;99592.16;5053129;28;20064;-58
2022/03/02 06:12:35;;;;;;;21.80;8.82;;;;;;;-1.77;57.30;99588.84;5054402;28;20076;-59
2022/03/02 06:15:20;;;;;;;22.38;8.23;;;;;;;-2.44;57.60;99594.19;5031219;28;20511;-58
2022/03/02 06:18:06;;;;;;;17.85;8.05;;;;;;;-2.33;56.94;99586.50;5054307;28;20076;-58
2022/03/02 06:20:59;;;;;;;19.55;7.60;;;;;;;-2.05;56.17;99591.53;5053983;28;20056;-58
2022/03/02 06:23:45;;;;;;;19.55;8.88;;;;;;;-1.80;55.05;99594.00;5038829;28;20060;-62
2022/03/02 06:26:32;;;;;;;20.08;8.85;;;;;;;-1.93;54.76;99583.78;5052945;28;20151;-61
2022/03/02 06:29:17;;;;;;;18.25;8.52;;;;;;;-1.56;54.49;99587.88;5057975;28;20060;-61
2022/03/02 06:32:04;;;;;;;16.30;6.82;;;;;;;-1.71;53.99;99595.69;5066327;28;20483;-61
2022/03/02 06:34:49;;;;;;;13.32;6.53;;;;;;;-1.32;52.88;99587.75;5054546;28;20056;-60
2022/03/02 06:37:36;;;;;;;19.63;7.43;;;;;;;-0.88;51.24;99586.56;5053803;28;20060;-62
2022/03/02 06:40:21;;;;;;;18.10;6.88;;;;;;;-0.58;50.50;99596.59;5061128;28;20415;-58
2022/03/02 06:43:18;;;;;;;19.73;7.60;;;;;;;-0.42;49.77;99589.56;5073018;28;20055;-59
2022/03/02 06:46:20;;;;;;;17.30;7.00;;;;;;;-0.65;50.13;99589.78;5073813;28;20051;-59
2022/03/02 06:49:26;;;;;;;19.70;7.80;;;;;;;-0.34;49.63;99586.91;5073994;28;20051;-58
2022/03/02 06:52:16;;;;;;;15.80;7.53;;;;;;;-0.17;49.69;99589.31;5053338;28;20400;-59
2022/03/02 06:55:06;;;;;;;17.05;7.57;;;;;;;-0.22;48.95;99587.66;5057509;28;20067;-59
2022/03/02 06:57:56;;;;;;;17.98;7.80;;;;;;;0.02;49.15;99583.94;5073385;28;20064;-58
2022/03/02 07:00:51;;;;;;;20.48;8.00;;;;;;;0.22;47.65;99588.00;5056578;28;20055;-59
2022/03/02 07:03:45;;;;;;;16.63;7.43;;;;;;;0.22;47.28;99596.59;5058422;28;20040;-57
2022/03/02 07:06:31;;;;;;;21.60;7.85;;;;;;;0.43;47.16;99588.59;5069962;28;20403;-58
2022/03/02 07:09:19;;;;;;;20.83;8.63;;;;;;;0.59;47.38;99582.34;5072383;28;20056;-58
2022/03/02 07:12:06;;;;;;;16.75;7.00;;;;;;;0.38;47.00;99587.81;5073303;28;20055;-58
2022/03/02 07:14:53;;;;;;;23.73;8.52;;;;;;;0.49;47.32;99588.50;5073143;28;20055;-61
2022/03/02 07:17:39;;;;;;;22.20;8.73;;;;;;;0.68;46.12;99577.94;5058879;28;20048;-59
2022/03/02 07:20:27;;;;;;;22.70;9.20;;;;;;;0.51;46.94;99579.03;5057574;28;20048;-59
2022/03/02 07:23:16;;;;;;;20.65;8.48;;;;;;;0.95;46.03;99576.66;5052561;28;20039;-57
2022/03/02 07:26:02;;;;;;;22.08;8.93;;;;;;;2.22;43.72;99576.94;5052410;28;20048;-58
2022/03/02 07:28:48;;;;;;;23.90;8.90;;;;;;;2.03;43.51;99585.06;5056959;28;20507;-62
2022/03/02 07:31:35;;;;;;;22.42;8.70;;;;;;;2.65;42.23;99582.03;5051363;28;20056;-61
2022/03/02 07:34:23;;;;;;;20.13;9.07;;;;;;;3.06;41.56;99572.47;5052499;28;20056;-60
2022/03/02 07:37:11;;;;;;;25.58;10.48;;;;;;;3.13;41.41;99560.22;5052480;28;20060;-61
2022/03/02 07:39:58;;;;;;;22.67;9.50;;;;;;;3.68;39.98;99571.75;5051385;28;20064;-60
2022/03/02 07:42:45;;;;;;;24.55;10.63;;;;;;;2.77;41.49;99563.66;5060753;28;20498;-61
2022/03/02 07:45:30;;;;;;;23.05;9.05;;;;;;;3.09;40.97;99556.00;5056255;28;20399;-61
2022/03/02 07:48:16;;;;;;;25.17;10.30;;;;;;;3.68;40.36;99556.22;5059037;28;20052;-59
2022/03/02 07:51:05;;;;;;;25.83;9.88;;;;;;;3.95;39.28;99553.72;5049921;28;20048;-58
2022/03/02 07:53:55;;;;;;;22.35;9.57;;;;;;;3.99;38.71;99552.75;5052608;28;20522;-58
2022/03/02 07:56:42;;;;;;;26.90;10.50;;;;;;;3.45;39.87;99544.72;5067131;28;20166;-59
2022/03/02 07:59:34;;;;;;;20.45;9.35;;;;;;;4.58;47.28;99541.53;5072502;28;20048;-57
2022/03/02 08:02:23;;;;;;;29.17;11.23;;;;;;;3.39;40.46;99544.91;5063348;28;20064;-59
2022/03/02 08:05:10;;;;;;;34.55;12.45;;;;;;;2.62;41.74;99544.16;5054908;28;20072;-58
2022/03/02 08:07:57;;;;;;;25.35;10.43;;;;;;;2.77;41.02;99537.78;5052651;28;20055;-60
2022/03/02 08:10:44;;;;;;;32.38;11.40;;;;;;;2.94;41.44;99534.78;5055686;28;20051;-60
2022/03/02 08:13:32;;;;;;;21.02;10.88;;;;;;;3.48;39.72;99528.25;5050678;28;20052;-60
2022/03/02 08:16:18;;;;;;;30.17;11.88;;;;;;;4.62;38.16;99527.56;5053683;28;20060;-63
2022/03/02 08:19:07;;;;;;;30.23;11.77;;;;;;;4.82;36.94;99524.31;5051626;28;20052;-60
2022/03/02 08:21:57;;;;;;;28.95;11.23;;;;;;;5.59;36.24;99511.34;5043970;28;20060;-59
2022/03/02 08:25:12;;;;;;;28.20;11.63;;;;;;;5.57;36.06;99511.41;5050691;28;20056;-59
2022/03/02 08:28:01;;;;;;;28.38;12.15;;;;;;;5.70;36.30;99509.19;5058199;28;20404;-60
2022/03/02 08:30:52;;;;;;;25.85;11.38;;;;;;;6.08;34.99;99507.88;5052396;28;20056;-60
2022/03/02 08:33:40;;;;;;;27.53;11.63;;;;;;;5.59;35.82;99511.34;5052507;28;20109;-59
2022/03/02 08:36:29;;;;;;;18.10;8.25;;;;;;;6.86;43.49;99494.41;5052449;28;20056;-57
2022/03/02 08:39:15;;;;;;;19.17;9.73;;;;;;;5.44;36.77;99508.38;5037769;28;20392;-56
2022/03/02 08:42:01;;;;;;;25.58;11.70;;;;;;;3.46;39.67;99502.38;5051891;28;20060;-58
2022/03/02 08:44:47;;;;;;;26.42;13.05;;;;;;;2.82;40.88;99515.22;5046125;28;20056;-57
2022/03/02 08:47:34;;;;;;;22.17;10.70;;;;;;;5.85;44.44;99519.94;5037459;28;20060;-56
2022/03/02 08:50:19;;;;;;;26.42;10.95;;;;;;;6.30;36.33;99510.47;5050960;28;20055;-57
2022/03/02 08:53:06;;;;;;;23.92;11.27;;;;;;;5.20;40.74;99520.47;5050319;28;20060;-57
2022/03/02 08:55:53;;;;;;;25.88;11.05;;;;;;;6.68;36.76;99514.22;5055970;28;20406;-57
2022/03/02 08:58:41;;;;;;;26.35;12.25;;;;;;;4.16;39.63;99515.13;5056392;28;20060;-58
2022/03/02 09:01:30;;;;;;;21.27;10.98;;;;;;;5.08;43.00;99513.94;5053147;28;20056;-57
2022/03/02 09:04:17;;;;;;;23.88;10.80;;;;;;;5.52;37.46;99508.97;5041238;28;20052;-59
2022/03/02 09:07:05;;;;;;;22.92;11.23;;;;;;;4.88;38.46;99495.53;5056475;28;20403;-56
2022/03/02 09:09:50;;;;;;;22.70;10.93;;;;;;;5.45;37.49;99499.69;5040984;28;20052;-58
2022/03/02 09:12:38;;;;;;;22.77;11.05;;;;;;;6.70;36.19;99502.00;5050295;28;20064;-58
2022/03/02 09:15:25;;;;;;;20.17;10.13;;;;;;;7.36;35.92;99503.56;5055477;28;20416;-57
2022/03/02 09:18:11;;;;;;;26.27;11.75;;;;;;;6.83;34.41;99490.16;5055938;28;20056;-57
2022/03/02 09:21:02;;;;;;;25.35;11.38;;;;;;;5.92;35.88;99495.41;5055619;28;20056;-58
2022/03/02 09:23:49;;;;;;;26.13;11.50;;;;;;;5.13;37.02;99499.91;5061431;28;20056;-58
2022/03/02 09:26:37;;;;;;;24.40;10.13;;;;;;;6.23;34.67;99488.22;5055322;28;20060;-58
2022/03/02 09:29:29;;;;;;;24.63;10.98;;;;;;;5.94;35.23;99487.56;5055292;28;20056;-57
2022/03/02 09:32:15;;;;;;;23.55;9.90;;;;;;;5.14;37.26;99485.19;5055191;28;20147;-59
2022/03/02 09:35:02;;;;;;;17.67;9.60;;;;;;;6.02;35.86;99473.34;5055613;28;20063;-57
2022/03/02 09:37:53;;;;;;;23.63;11.32;;;;;;;5.99;36.45;99483.84;5040144;28;20060;-56
2022/03/02 09:40:43;;;;;;;19.95;9.90;;;;;;;7.85;33.32;99484.03;5055257;28;20422;-57
2022/03/02 09:43:31;;;;;;;23.45;11.05;;;;;;;7.59;32.64;99480.84;5055271;28;20048;-58
2022/03/02 09:46:30;;;;;;;20.98;9.82;;;;;;;8.87;31.92;99471.47;5046082;28;20051;-56
2022/03/02 09:49:21;;;;;;;19.80;9.88;;;;;;;8.24;31.94;99479.66;5055576;28;20404;-57
2022/03/02 09:52:12;;;;;;;17.50;9.70;;;;;;;8.35;32.77;99481.78;5046186;28;20146;-57
2022/03/02 09:54:58;;;;;;;20.90;9.88;;;;;;;8.70;31.34;99473.16;5054937;28;20059;-57
2022/03/02 09:57:46;;;;;;;20.08;9.55;;;;;;;9.32;30.14;99479.63;5055128;28;20071;-58
2022/03/02 10:00:32;;;;;;;18.15;9.43;;;;;;;8.76;31.93;99472.00;5045623;28;20052;-57
2022/03/02 10:03:19;;;;;;;23.52;9.60;;;;;;;9.02;30.27;99464.63;5060557;28;20052;-58
2022/03/02 10:06:06;;;;;;;20.45;10.05;;;;;;;8.80;31.42;99462.22;5054204;28;20056;-57
2022/03/02 10:08:54;;;;;;;18.73;9.18;;;;;;;9.50;29.41;99463.91;5060760;28;20080;-58
2022/03/02 10:11:43;;;;;;;19.35;8.82;;;;;;;10.57;28.91;99456.41;5031852;28;20059;-58
2022/03/02 10:14:29;;;;;;;19.50;9.43;;;;;;;9.61;29.49;99465.97;5054063;28;20052;-57
2022/03/02 10:17:20;;;;;;;16.05;8.38;;;;;;;10.07;29.04;99456.53;5055072;28;20503;-57
2022/03/02 10:20:09;;;;;;;19.77;9.30;;;;;;;10.68;30.26;99461.88;5054325;28;20067;-59
2022/03/02 10:23:21;;;;;;;19.35;9.65;;;;;;;9.83;29.97;99464.78;5060030;28;20067;-58
2022/03/02 10:26:10;;;;;;;19.05;9.68;;;;;;;9.39;28.72;99450.56;5054113;28;20052;-57
2022/03/02 10:29:20;;;;;;;20.08;9.52;;;;;;;9.45;29.48;99445.84;5053439;28;20052;-59
2022/03/02 10:32:16;;;;;;;20.45;9.55;;;;;;;10.42;28.62;99439.75;5054696;28;20052;-57
2022/03/02 10:35:06;;;;;;;16.50;8.10;;;;;;;10.82;28.74;99447.94;5054210;28;20075;-57
2022/03/02 10:37:57;;;;;;;14.15;7.40;;;;;;;10.96;26.88;99441.91;5054199;28;20048;-57
2022/03/02 10:40:46;;;;;;;17.70;8.65;;;;;;;11.05;29.04;99434.44;5040002;28;20076;-58
2022/03/02 10:44:04;;;;;;;16.70;7.80;;;;;;;10.55;26.79;99437.31;5076006;28;20055;-58
2022/03/02 10:47:03;;;;;;;18.30;8.18;;;;;;;10.18;26.53;99438.47;5093717;28;20062;-58
2022/03/02 10:49:51;;;;;;;18.17;8.00;;;;;;;9.90;27.01;99433.91;5093299;28;20059;-60
2022/03/02 10:52:38;;;;;;;17.80;7.82;;;;;;;10.98;25.20;99436.56;5093919;28;20078;-60
2022/03/02 10:55:25;;;;;;;19.88;8.32;;;;;;;12.79;24.07;99425.31;5092962;28;20122;-58
2022/03/02 10:58:14;;;;;;;16.95;8.30;;;;;;;12.42;24.30;99425.94;5074404;28;20120;-58
2022/03/02 11:01:00;;;;;;;14.70;7.60;;;;;;;10.88;24.25;99411.84;5073863;28;20055;-59
2022/03/02 11:03:46;;;;;;;14.63;7.40;;;;;;;12.09;23.76;99419.34;5070272;28;20060;-58
2022/03/02 11:06:32;;;;;;;17.30;7.93;;;;;;;10.41;24.20;99412.72;5053437;28;20526;-60
2022/03/02 11:09:20;;;;;;;14.90;7.70;;;;;;;10.45;24.99;99422.09;5053549;28;20075;-60
2022/03/02 11:12:09;;;;;;;17.20;8.23;;;;;;;11.46;24.11;99424.97;5053602;28;20520;-58
2022/03/02 11:14:56;;;;;;;16.55;7.82;;;;;;;12.63;29.78;99419.38;5044140;28;20056;-58
2022/03/02 11:18:00;;;;;;;13.18;6.45;;;;;;;13.21;22.09;99405.84;5052676;28;20059;-58
2022/03/02 11:21:10;;;;;;;17.35;7.45;;;;;;;12.76;22.89;99407.09;5053245;28;20052;-57
2022/03/02 11:24:00;;;;;;;13.85;7.13;;;;;;;11.18;23.33;99398.66;5044091;28;20051;-58
2022/03/02 11:26:48;;;;;;;16.35;7.00;;;;;;;10.29;23.82;99395.09;5053009;28;20044;-58
2022/03/02 11:29:34;;;;;;;14.13;7.13;;;;;;;12.10;31.15;99386.88;5052603;28;20060;-59
2022/03/02 11:32:25;;;;;;;18.35;7.65;;;;;;;13.02;22.22;99387.88;5052795;28;20056;-58
2022/03/02 11:35:14;;;;;;;15.18;7.45;;;;;;;11.46;23.40;99383.84;5053074;28;20051;-58
2022/03/02 11:38:00;;;;;;;18.65;7.85;;;;;;;12.19;22.79;99373.13;5038280;28;20056;-58
2022/03/02 11:40:47;;;;;;;15.38;7.93;;;;;;;11.44;23.54;99377.84;5038236;28;20048;-60
2022/03/02 11:43:34;;;;;;;13.88;7.68;;;;;;;11.29;24.08;99376.19;5053023;28;20404;-58
2022/03/02 11:46:20;;;;;;;15.60;7.03;;;;;;;11.30;23.13;99380.47;5052947;28;20067;-58
2022/03/02 11:49:05;;;;;;;13.70;6.82;;;;;;;9.06;25.16;99374.66;5051860;28;20389;-59
2022/03/02 11:52:09;;;;;;;14.77;7.40;;;;;;;8.74;26.26;99358.91;5052779;28;20056;-56
2022/03/02 11:54:56;;;;;;;12.27;6.70;;;;;;;10.19;25.52;99358.97;5052556;28;20119;-57
2022/03/02 11:57:47;;;;;;;13.30;6.03;;;;;;;11.68;23.05;99351.00;5037862;28;20055;-56
2022/03/02 12:00:33;;;;;;;14.10;6.72;;;;;;;10.71;23.60;99341.16;5045521;28;20059;-58
2022/03/02 12:03:18;;;;;;;13.73;6.40;;;;;;;10.16;24.75;99340.81;5052623;28;20504;-57
2022/03/02 12:06:05;;;;;;;12.88;6.70;;;;;;;9.79;24.97;99340.31;5052354;28;20053;-60
2022/03/02 12:08:53;;;;;;;13.02;7.05;;;;;;;9.94;24.86;99335.97;5052589;28;20408;-56
2022/03/02 12:11:39;;;;;;;11.95;6.07;;;;;;;11.99;23.08;99318.44;5052644;28;20053;-60
2022/03/02 12:14:24;;;;;;;14.40;6.93;;;;;;;11.66;22.37;99312.66;5043150;28;20060;-58
2022/03/02 12:17:19;;;;;;;10.88;5.70;;;;;;;11.66;22.70;99316.13;5053187;28;20059;-58
2022/03/02 12:20:12;;;;;;;11.00;6.00;;;;;;;12.33;22.44;99316.22;5052681;28;20396;-59
2022/03/02 12:22:58;;;;;;;13.05;6.80;;;;;;;12.03;22.07;99306.78;5052469;28;20044;-58
2022/03/02 12:25:44;;;;;;;12.82;6.30;;;;;;;12.10;22.38;99309.88;5043367;28;20116;-58
2022/03/02 12:28:30;;;;;;;12.65;6.18;;;;;;;12.32;22.87;99304.88;5044404;28;20056;-59
2022/03/02 12:31:15;;;;;;;12.93;6.82;;;;;;;11.73;22.77;99305.22;5058666;28;20427;-58
2022/03/02 12:34:14;;;;;;;17.27;7.75;;;;;;;10.32;24.04;99285.78;5065882;28;20531;-59
2022/03/02 12:37:01;;;;;;;15.18;7.13;;;;;;;9.65;25.46;99301.81;5063616;28;20056;-62
2022/03/02 12:39:47;;;;;;;16.20;6.97;;;;;;;11.40;23.88;99289.78;5053062;28;20130;-58
2022/03/02 12:42:33;;;;;;;14.55;7.40;;;;;;;12.26;22.28;99284.28;5061704;28;20048;-60
2022/03/02 12:45:20;;;;;;;13.65;7.28;;;;;;;11.78;23.03;99284.78;5064512;28;20048;-61
2022/03/02 12:48:07;;;;;;;14.70;7.97;;;;;;;12.38;22.62;99294.91;5059248;28;20068;-59
2022/03/02 12:50:53;;;;;;;13.50;6.45;;;;;;;12.88;22.43;99288.88;5075775;28;20455;-60
2022/03/02 12:53:41;;;;;;;13.77;7.82;;;;;;;12.55;22.42;99286.69;5075793;28;20071;-60
2022/03/02 12:56:26;;;;;;;14.45;7.30;;;;;;;11.78;22.93;99282.97;5075335;28;20072;-59
2022/03/02 12:59:12;;;;;;;13.73;7.88;;;;;;;10.69;23.87;99287.16;5065429;28;20064;-59
2022/03/02 13:02:07;;;;;;;16.45;7.68;;;;;;;10.66;24.11;99288.16;5032802;28;20514;-60